Terminal Aerodrome Forecast
Issued by NWS

Home | Current Version | Previous Version | Text Only | Print | Product List | Glossary On
Versions: 1 2 3 4 5 6 7 8 9 10 11 12 13 14 15 16 17
000
FTUS46 KHNX 281722
TAFMCE
TAF
KMCE 281722Z 2818/2918 13005KT P6SM SCT200
     FM290400 16005KT 4SM BR BKN200
     FM291600 13006KT 4SM BR BKN070 PROB30 2916/2918 -RA=

USA.gov is the U.S. government's official web portal to all federal, state and local government web resources and services.